Impacts TAF Board
For situational awareness. Not to be used for flight planning purposes.
IDs:

KSAN - San Diego Intl Arpt, CA, US

Issued at 2320 UTC 21 Sep 2021
Updated at 2326 UTC 21 Sep 2021
Potential Impact None Slight Moderate High
Time2251Z 22/00Z 22/01Z 22/02Z 22/03Z 22/04Z 22/05Z 22/06Z 22/07Z 22/08Z 22/09Z 22/10Z 22/11Z 22/12Z>>
Type OBS PRVL PRVL PRVL PRVL PRVL PRVL PRVL PRVL PRVL PRVL PRVL PRVL PRVL
VIS 10 >6 >6 >6 >6 >6 >6 >6 >6 >6 >6 >6 >6 >6
CIG -- -- -- -- -- -- -- -- -- -- -- -- -- --
Cover FEW SKC SKC SKC SKC SKC SKC SKC SKC SCT SCT SCT SCT SCT
FltCat VFR VFR VFR VFR VFR VFR VFR VFR VFR VFR VFR VFR VFR VFR
WX -- -- -- -- -- -- -- -- -- -- -- -- -- --
WDir 290 290 290 VRB VRB VRB VRB VRB VRB VRB VRB VRB VRB VRB
WSpd 10 9 9 4 4 4 4 4 4 4 4 4 4 4
WGst -- -- -- -- -- -- -- -- -- -- -- -- -- --
Raw TAF
KSAN 212320Z 2200/2306 29009KT P6SM SKC
  FM220200 VRB04KT P6SM SKC
  FM220800 VRB04KT P6SM SCT006
  FM221600 VRB04KT P6SM SKC
  FM221900 30008KT P6SM SKC
  FM230200 VRB04KT P6SM SKC


Raw METAR
KSAN 212251Z 29010KT 10SM FEW050 27/18 A3002 RMK AO2 SLP166 T02670183
KSAN 212151Z 32007G15KT 10SM CLR 28/17 A3002 RMK AO2 SLP165 T02830167
KSAN 212051Z 31010G16KT 10SM FEW050 27/17 A3003 RMK AO2 SLP167 T02720172 58012

METAR Board
Radar Display
Forecast Discussion
For situational awareness. Not to be used for flight planning purposes.